Time;durP1;ratioP1;P1;durP2;ratioP2;P2;SDS_P1;SDS_P2;PMS_P1;PMS_P2;Temp;Humidity;BMP_temperature;BMP_pressure;BME280_temperature;BME280_humidity;BME280_pressure;Samples;Min_cycle;Max_cycle;Signal;HPM_P1;HPM_P2
2021/10/19 00:01:03;;;;;;;0.10;0.10;;;;;;;;;;5006476;28;20202;-68
2021/10/19 00:03:31;;;;;;;0.10;0.10;;;;;;;;;;5006563;28;20248;-66
2021/10/19 00:05:57;;;;;;;0.10;0.10;;;;;;;;;;5006556;28;20209;-67
2021/10/19 00:08:23;;;;;;;0.10;0.10;;;;;;;;;;5006405;28;20245;-66
2021/10/19 00:10:49;;;;;;;0.10;0.10;;;;;;;;;;5006664;28;20224;-66
2021/10/19 00:13:16;;;;;;;0.10;0.10;;;;;;;;;;5006288;28;20210;-66
2021/10/19 00:15:42;;;;;;;0.10;0.10;;;;;;;;;;5006226;28;20205;-67
2021/10/19 00:18:08;;;;;;;0.10;0.10;;;;;;;;;;5006297;28;20244;-67
2021/10/19 00:20:35;;;;;;;0.10;0.10;;;;;;;;;;5006106;28;20201;-68
2021/10/19 00:23:02;;;;;;;0.10;0.10;;;;;;;;;;5006186;28;20210;-66
2021/10/19 00:25:28;;;;;;;0.10;0.10;;;;;;;;;;5005996;28;20249;-67
2021/10/19 00:27:54;;;;;;;0.10;0.10;;;;;;;;;;5004899;28;20213;-67
2021/10/19 00:30:21;;;;;;;0.20;0.20;;;;;;;;;;5005772;28;20468;-66
2021/10/19 00:32:47;;;;;;;0.10;0.10;;;;;;;;;;5005904;28;20450;-68
2021/10/19 00:35:13;;;;;;;0.10;0.10;;;;;;;;;;5005988;28;20228;-67
2021/10/19 00:37:41;;;;;;;1.70;1.70;;;;;;;;;;5005636;28;20205;-67
2021/10/19 00:40:08;;;;;;;0.10;0.10;;;;;;;;;;5005759;28;20218;-68
2021/10/19 00:42:34;;;;;;;0.10;0.10;;;;;;;;;;5005617;28;20214;-66
2021/10/19 00:45:01;;;;;;;0.10;0.10;;;;;;;;;;5005749;28;20234;-67
2021/10/19 00:47:27;;;;;;;0.10;0.10;;;;;;;;;;5005613;28;20210;-67
2021/10/19 00:49:53;;;;;;;0.10;0.10;;;;;;;;;;5005672;28;20229;-67
2021/10/19 00:52:20;;;;;;;0.10;0.10;;;;;;;;;;5005687;28;20233;-66
2021/10/19 00:54:47;;;;;;;0.10;0.10;;;;;;;;;;5005424;28;20202;-67
2021/10/19 00:57:14;;;;;;;0.53;0.53;;;;;;;;;;5005263;28;20202;-66
2021/10/19 00:59:42;;;;;;;0.10;0.10;;;;;;;;;;5005242;28;20206;-67
2021/10/19 01:02:08;;;;;;;0.10;0.10;;;;;;;;;;5005152;28;20243;-67
2021/10/19 01:04:35;;;;;;;0.10;0.10;;;;;;;;;;5005095;28;20206;-67
2021/10/19 01:07:01;;;;;;;0.10;0.10;;;;;;;;;;5005226;28;20206;-67
2021/10/19 01:09:27;;;;;;;0.13;0.13;;;;;;;;;;5005442;28;20265;-67
2021/10/19 01:11:55;;;;;;;0.10;0.10;;;;;;;;;;5005068;28;20428;-66
2021/10/19 01:14:21;;;;;;;0.10;0.10;;;;;;;;;;5004991;28;20556;-66
2021/10/19 01:16:47;;;;;;;0.10;0.10;;;;;;;;;;5005239;28;20206;-67
2021/10/19 01:19:20;;;;;;;0.10;0.10;;;;;;;;;;5005104;28;20210;-67
2021/10/19 01:21:50;;;;;;;0.10;0.10;;;;;;;;;;5004773;28;20201;-66
2021/10/19 01:24:16;;;;;;;0.10;0.10;;;;;;;;;;5005170;28;20202;-66
2021/10/19 01:26:42;;;;;;;0.10;0.10;;;;;;;;;;5005120;28;20209;-67
2021/10/19 01:29:09;;;;;;;0.10;0.10;;;;;;;;;;5004887;28;20247;-67
2021/10/19 01:31:35;;;;;;;0.40;0.40;;;;;;;;;;5004432;28;20305;-66
2021/10/19 01:34:01;;;;;;;0.10;0.10;;;;;;;;;;5004540;28;20220;-66
2021/10/19 01:36:28;;;;;;;0.20;0.20;;;;;;;;;;5004903;28;20204;-67
2021/10/19 01:38:55;;;;;;;0.10;0.10;;;;;;;;;;4994245;28;20214;-66
2021/10/19 01:41:22;;;;;;;0.10;0.10;;;;;;;;;;5001246;28;20248;-66
2021/10/19 01:43:49;;;;;;;0.10;0.10;;;;;;;;;;5004761;28;20231;-67
2021/10/19 01:46:15;;;;;;;0.10;0.10;;;;;;;;;;5004264;28;20209;-67
2021/10/19 01:48:42;;;;;;;0.10;0.10;;;;;;;;;;5004655;28;20205;-66
2021/10/19 01:51:08;;;;;;;0.10;0.10;;;;;;;;;;5004809;28;20409;-66
2021/10/19 01:53:35;;;;;;;0.10;0.10;;;;;;;;;;5004470;28;20426;-67
2021/10/19 01:56:02;;;;;;;0.10;0.10;;;;;;;;;;5004210;28;20206;-66
2021/10/19 01:58:29;;;;;;;0.10;0.10;;;;;;;;;;5004301;28;20210;-66
2021/10/19 02:00:55;;;;;;;0.10;0.10;;;;;;;;;;5004217;28;20411;-66
2021/10/19 02:03:21;;;;;;;0.10;0.10;;;;;;;;;;5004222;28;20429;-66
2021/10/19 02:05:48;;;;;;;0.10;0.10;;;;;;;;;;5004908;28;20206;-66
2021/10/19 02:08:14;;;;;;;0.10;0.10;;;;;;;;;;5004187;28;20206;-67
2021/10/19 02:10:40;;;;;;;0.10;0.10;;;;;;;;;;5003388;28;20261;-67
2021/10/19 02:13:08;;;;;;;0.10;0.10;;;;;;;;;;4995260;28;20286;-67
2021/10/19 02:15:35;;;;;;;0.10;0.10;;;;;;;;;;5003971;28;20259;-66
2021/10/19 02:18:01;;;;;;;2.20;2.10;;;;;;;;;;5004044;28;20205;-66
2021/10/19 02:20:28;;;;;;;0.10;0.10;;;;;;;;;;5004030;28;20205;-66
2021/10/19 02:22:54;;;;;;;0.10;0.10;;;;;;;;;;5003707;28;20215;-66
2021/10/19 02:25:21;;;;;;;0.10;0.10;;;;;;;;;;5003985;28;20269;-67
2021/10/19 02:27:48;;;;;;;0.10;0.10;;;;;;;;;;5003896;28;20426;-67
2021/10/19 02:30:16;;;;;;;0.10;0.10;;;;;;;;;;5003586;28;20261;-66
2021/10/19 02:32:43;;;;;;;0.10;0.10;;;;;;;;;;5003429;28;20324;-66
2021/10/19 02:35:10;;;;;;;0.10;0.10;;;;;;;;;;5003788;28;20270;-67
2021/10/19 02:37:36;;;;;;;0.10;0.10;;;;;;;;;;5003625;28;20217;-67
2021/10/19 02:40:03;;;;;;;0.20;0.20;;;;;;;;;;5003679;28;20251;-67
2021/10/19 02:42:29;;;;;;;0.10;0.10;;;;;;;;;;5003676;28;20205;-67
2021/10/19 02:44:56;;;;;;;0.10;0.10;;;;;;;;;;5003348;28;20209;-67
2021/10/19 02:47:23;;;;;;;0.10;0.10;;;;;;;;;;5003620;28;20271;-67
2021/10/19 02:49:49;;;;;;;0.10;0.10;;;;;;;;;;5003126;28;20443;-69
2021/10/19 02:52:16;;;;;;;0.10;0.10;;;;;;;;;;5003728;28;20448;-67
2021/10/19 02:54:42;;;;;;;0.10;0.10;;;;;;;;;;5003747;28;20212;-66
2021/10/19 02:57:09;;;;;;;0.10;0.10;;;;;;;;;;5003572;28;20252;-68
2021/10/19 02:59:35;;;;;;;0.10;0.10;;;;;;;;;;5003369;28;20215;-66
2021/10/19 03:02:02;;;;;;;0.10;0.10;;;;;;;;;;5003416;28;20272;-66
2021/10/19 03:04:29;;;;;;;0.10;0.10;;;;;;;;;;5003227;28;20209;-66
2021/10/19 03:06:55;;;;;;;0.10;0.10;;;;;;;;;;5003128;28;20214;-67
2021/10/19 03:09:22;;;;;;;0.10;0.10;;;;;;;;;;5003328;28;20206;-66
2021/10/19 03:11:48;;;;;;;0.10;0.10;;;;;;;;;;5003349;28;20598;-67
2021/10/19 03:14:14;;;;;;;0.10;0.10;;;;;;;;;;5003432;28;20213;-67
2021/10/19 03:16:40;;;;;;;0.10;0.10;;;;;;;;;;5003290;28;20391;-67
2021/10/19 03:19:06;;;;;;;0.10;0.10;;;;;;;;;;5003154;28;20220;-66
2021/10/19 03:21:34;;;;;;;0.10;0.10;;;;;;;;;;5002967;28;20259;-67
2021/10/19 03:24:00;;;;;;;0.10;0.10;;;;;;;;;;5003295;28;20348;-66
2021/10/19 03:26:26;;;;;;;0.10;0.10;;;;;;;;;;5003153;28;20258;-66
2021/10/19 03:28:53;;;;;;;0.10;0.10;;;;;;;;;;5003151;28;20271;-66
2021/10/19 03:31:19;;;;;;;0.10;0.10;;;;;;;;;;5002631;28;20234;-66
2021/10/19 03:33:45;;;;;;;0.10;0.10;;;;;;;;;;5003033;28;20204;-68
2021/10/19 03:36:11;;;;;;;0.10;0.10;;;;;;;;;;5002965;28;20249;-66
2021/10/19 03:38:39;;;;;;;0.10;0.10;;;;;;;;;;5003082;28;21285;-67
2021/10/19 03:41:06;;;;;;;0.10;0.10;;;;;;;;;;5003072;28;20544;-66
2021/10/19 03:43:32;;;;;;;0.10;0.10;;;;;;;;;;5002997;28;20202;-66
2021/10/19 03:46:01;;;;;;;0.10;0.10;;;;;;;;;;5002740;28;20212;-67
2021/10/19 03:48:28;;;;;;;0.10;0.10;;;;;;;;;;5003028;28;20208;-66
2021/10/19 03:50:54;;;;;;;0.10;0.10;;;;;;;;;;5003050;28;20216;-66
2021/10/19 03:53:20;;;;;;;0.10;0.10;;;;;;;;;;5002921;28;20287;-66
2021/10/19 03:55:48;;;;;;;0.10;0.10;;;;;;;;;;5002989;28;20202;-66
2021/10/19 03:58:14;;;;;;;0.10;0.10;;;;;;;;;;5002770;28;20284;-66
2021/10/19 04:00:41;;;;;;;0.10;0.10;;;;;;;;;;5002727;28;20215;-67
2021/10/19 04:03:08;;;;;;;0.10;0.10;;;;;;;;;;5006243;28;20211;-67
2021/10/19 04:05:34;;;;;;;0.10;0.10;;;;;;;;;;5006004;28;20276;-67
2021/10/19 04:08:00;;;;;;;0.10;0.10;;;;;;;;;;5006405;28;20422;-67
2021/10/19 04:10:27;;;;;;;0.10;0.10;;;;;;;;;;5006498;28;20247;-67
2021/10/19 04:12:55;;;;;;;0.10;0.10;;;;;;;;;;5006249;28;20221;-66
2021/10/19 04:15:21;;;;;;;0.10;0.10;;;;;;;;;;5006058;28;20217;-66
2021/10/19 04:17:47;;;;;;;0.20;0.20;;;;;;;;;;5006095;28;20250;-67
2021/10/19 04:20:14;;;;;;;0.10;0.10;;;;;;;;;;4992461;28;20464;-66
2021/10/19 04:22:40;;;;;;;0.10;0.10;;;;;;;;;;5006330;28;20218;-68
2021/10/19 04:25:06;;;;;;;0.10;0.10;;;;;;;;;;5005810;28;20209;-68
2021/10/19 04:27:33;;;;;;;0.10;0.10;;;;;;;;;;5005896;28;20245;-67
2021/10/19 04:30:01;;;;;;;0.10;0.10;;;;;;;;;;5005776;28;20263;-68
2021/10/19 04:32:27;;;;;;;0.10;0.10;;;;;;;;;;5006411;28;20224;-67
2021/10/19 04:34:53;;;;;;;0.10;0.10;;;;;;;;;;5006087;28;20208;-67
2021/10/19 04:37:19;;;;;;;0.10;0.10;;;;;;;;;;4992242;28;20217;-67
2021/10/19 04:39:45;;;;;;;0.10;0.10;;;;;;;;;;5005692;28;20232;-67
2021/10/19 04:42:12;;;;;;;0.10;0.10;;;;;;;;;;5005646;28;20288;-68
2021/10/19 04:44:38;;;;;;;0.10;0.10;;;;;;;;;;5005851;28;20212;-67
2021/10/19 04:47:06;;;;;;;0.10;0.10;;;;;;;;;;5005477;28;20275;-68
2021/10/19 04:49:32;;;;;;;0.10;0.10;;;;;;;;;;5005808;28;20212;-67
2021/10/19 04:51:59;;;;;;;0.30;0.30;;;;;;;;;;5005195;28;20229;-66
2021/10/19 04:54:25;;;;;;;0.10;0.10;;;;;;;;;;5005756;28;20209;-67
2021/10/19 04:56:51;;;;;;;0.10;0.10;;;;;;;;;;5005372;28;20205;-66
2021/10/19 04:59:17;;;;;;;0.10;0.10;;;;;;;;;;5005523;28;20205;-67
2021/10/19 05:01:43;;;;;;;0.10;0.10;;;;;;;;;;5005530;28;20253;-67
2021/10/19 05:04:15;;;;;;;0.10;0.10;;;;;;;;;;5005402;28;20403;-67
2021/10/19 05:06:41;;;;;;;0.10;0.10;;;;;;;;;;5005394;28;20199;-67
2021/10/19 05:09:07;;;;;;;0.20;0.20;;;;;;;;;;5005136;28;20206;-67
2021/10/19 05:11:33;;;;;;;0.10;0.10;;;;;;;;;;5005458;28;20204;-67
2021/10/19 05:14:00;;;;;;;0.10;0.10;;;;;;;;;;5004612;28;20232;-67
2021/10/19 05:16:26;;;;;;;0.10;0.10;;;;;;;;;;5005371;28;20212;-66
2021/10/19 05:18:52;;;;;;;0.10;0.10;;;;;;;;;;4997156;28;20205;-67
2021/10/19 05:21:20;;;;;;;0.10;0.10;;;;;;;;;;4999458;28;20206;-67
2021/10/19 05:23:46;;;;;;;0.10;0.10;;;;;;;;;;5004837;28;20206;-67
2021/10/19 05:26:13;;;;;;;0.10;0.10;;;;;;;;;;5005190;28;20212;-67
2021/10/19 05:28:39;;;;;;;0.10;0.10;;;;;;;;;;5005156;28;20206;-67
2021/10/19 05:31:06;;;;;;;0.10;0.10;;;;;;;;;;5004721;28;20279;-67
2021/10/19 05:33:32;;;;;;;0.10;0.10;;;;;;;;;;5004604;28;20266;-66
2021/10/19 05:35:58;;;;;;;0.10;0.10;;;;;;;;;;5004904;28;20206;-66
2021/10/19 05:38:26;;;;;;;0.20;0.20;;;;;;;;;;5004803;28;20216;-66
2021/10/19 05:40:52;;;;;;;0.10;0.10;;;;;;;;;;5004960;28;20259;-66
2021/10/19 05:43:18;;;;;;;0.10;0.10;;;;;;;;;;5004728;28;20206;-67
2021/10/19 05:45:44;;;;;;;0.10;0.10;;;;;;;;;;5004454;28;20203;-66
2021/10/19 05:48:10;;;;;;;0.10;0.10;;;;;;;;;;5004548;28;20416;-66
2021/10/19 05:50:38;;;;;;;0.10;0.10;;;;;;;;;;5004211;28;20227;-67
2021/10/19 05:53:04;;;;;;;4.53;4.33;;;;;;;;;;5004071;28;20234;-67
2021/10/19 05:55:32;;;;;;;0.10;0.10;;;;;;;;;;5004607;28;20246;-66
2021/10/19 05:57:58;;;;;;;0.10;0.10;;;;;;;;;;5004537;28;20239;-66
2021/10/19 06:00:24;;;;;;;0.10;0.10;;;;;;;;;;5001703;28;20265;-65
2021/10/19 06:02:50;;;;;;;0.10;0.10;;;;;;;;;;4987114;28;20199;-66
2021/10/19 06:05:16;;;;;;;0.10;0.10;;;;;;;;;;4988931;28;20267;-67
2021/10/19 06:07:43;;;;;;;0.10;0.10;;;;;;;;;;5004036;28;20213;-66
2021/10/19 06:10:09;;;;;;;0.10;0.10;;;;;;;;;;5001494;28;20263;-66
2021/10/19 06:12:37;;;;;;;0.10;0.10;;;;;;;;;;5002770;28;20473;-66
2021/10/19 06:15:03;;;;;;;0.10;0.10;;;;;;;;;;5001373;28;20250;-67
2021/10/19 06:17:29;;;;;;;0.10;0.10;;;;;;;;;;5017872;28;20557;-68
2021/10/19 06:19:56;;;;;;;0.10;0.10;;;;;;;;;;5002882;28;20210;-67
2021/10/19 06:22:22;;;;;;;0.10;0.10;;;;;;;;;;4998511;28;20420;-66
2021/10/19 06:24:48;;;;;;;0.10;0.10;;;;;;;;;;4990250;28;20209;-67
2021/10/19 06:27:14;;;;;;;0.10;0.10;;;;;;;;;;4990728;28;20212;-67
2021/10/19 06:29:42;;;;;;;0.10;0.10;;;;;;;;;;4992370;28;20292;-69
2021/10/19 06:32:08;;;;;;;0.10;0.10;;;;;;;;;;4997477;28;20209;-72
2021/10/19 06:34:34;;;;;;;0.10;0.10;;;;;;;;;;4990223;28;20235;-70
2021/10/19 06:37:01;;;;;;;0.10;0.10;;;;;;;;;;4992780;28;20254;-70
2021/10/19 06:39:27;;;;;;;0.10;0.10;;;;;;;;;;4993579;28;20437;-70
2021/10/19 06:41:53;;;;;;;0.10;0.10;;;;;;;;;;4994609;28;20207;-70
2021/10/19 06:44:20;;;;;;;0.10;0.10;;;;;;;;;;5000057;28;20204;-70
2021/10/19 06:46:48;;;;;;;0.10;0.10;;;;;;;;;;4999325;28;20211;-69
2021/10/19 06:49:14;;;;;;;0.10;0.10;;;;;;;;;;5003477;28;20211;-70
2021/10/19 06:51:40;;;;;;;0.33;0.33;;;;;;;;;;4997798;28;20215;-71
2021/10/19 06:54:06;;;;;;;0.10;0.10;;;;;;;;;;4993425;28;20416;-70
2021/10/19 06:56:33;;;;;;;0.40;0.40;;;;;;;;;;4997422;28;20201;-71
2021/10/19 06:58:59;;;;;;;0.10;0.10;;;;;;;;;;5000310;28;20220;-71
2021/10/19 07:01:25;;;;;;;0.10;0.10;;;;;;;;;;5003600;28;20287;-70
2021/10/19 07:03:53;;;;;;;0.10;0.10;;;;;;;;;;5003310;28;20202;-70
2021/10/19 07:06:19;;;;;;;0.13;0.13;;;;;;;;;;5003367;28;20254;-70
2021/10/19 07:08:45;;;;;;;0.10;0.10;;;;;;;;;;5016224;28;20208;-70
2021/10/19 07:11:11;;;;;;;0.10;0.10;;;;;;;;;;5003569;28;20416;-70
2021/10/19 07:13:38;;;;;;;0.10;0.10;;;;;;;;;;5003274;28;20251;-71
2021/10/19 07:16:04;;;;;;;0.10;0.10;;;;;;;;;;5016920;28;20420;-70
2021/10/19 07:18:30;;;;;;;0.10;0.10;;;;;;;;;;5003417;28;20332;-71
2021/10/19 07:20:58;;;;;;;0.10;0.10;;;;;;;;;;5003460;28;20424;-71
2021/10/19 07:23:24;;;;;;;0.10;0.10;;;;;;;;;;5002868;28;20259;-70
2021/10/19 07:25:50;;;;;;;3.00;2.80;;;;;;;;;;5000421;28;20306;-71
2021/10/19 07:28:17;;;;;;;0.10;0.10;;;;;;;;;;5003192;28;20487;-71
2021/10/19 07:30:43;;;;;;;0.10;0.10;;;;;;;;;;5000184;28;20283;-71
2021/10/19 07:33:10;;;;;;;0.23;0.23;;;;;;;;;;4996120;28;20236;-72
2021/10/19 07:35:36;;;;;;;0.20;0.20;;;;;;;;;;4987956;28;20251;-71
2021/10/19 07:38:05;;;;;;;0.10;0.10;;;;;;;;;;4988022;28;20213;-71
2021/10/19 07:40:31;;;;;;;0.10;0.10;;;;;;;;;;4988407;28;20381;-72
2021/10/19 07:42:58;;;;;;;0.10;0.10;;;;;;;;;;4997094;28;20216;-70
2021/10/19 07:45:26;;;;;;;0.30;0.30;;;;;;;;;;5005354;28;20204;-71
2021/10/19 07:47:52;;;;;;;0.10;0.10;;;;;;;;;;5001993;28;20553;-71
2021/10/19 07:50:19;;;;;;;0.10;0.10;;;;;;;;;;5001387;28;20265;-72
2021/10/19 07:52:47;;;;;;;0.10;0.10;;;;;;;;;;4989342;28;20228;-71
2021/10/19 07:55:15;;;;;;;0.13;0.13;;;;;;;;;;4989454;28;20257;-72
2021/10/19 07:57:45;;;;;;;0.10;0.10;;;;;;;;;;4998657;28;20260;-71
2021/10/19 08:00:12;;;;;;;0.10;0.10;;;;;;;;;;5009551;28;20209;-71
2021/10/19 08:02:41;;;;;;;0.10;0.10;;;;;;;;;;5006103;28;20268;-70
2021/10/19 08:05:12;;;;;;;1.17;1.17;;;;;;;;;;5001624;28;20207;-70
2021/10/19 08:07:38;;;;;;;0.10;0.10;;;;;;;;;;4999415;28;20218;-70
2021/10/19 08:10:05;;;;;;;0.10;0.10;;;;;;;;;;4987252;28;20207;-70
2021/10/19 08:12:32;;;;;;;0.10;0.10;;;;;;;;;;4988706;28;20261;-71
2021/10/19 08:15:01;;;;;;;0.10;0.10;;;;;;;;;;4999273;28;20283;-71
2021/10/19 08:17:27;;;;;;;0.10;0.10;;;;;;;;;;5000855;28;20217;-69
2021/10/19 08:19:58;;;;;;;0.10;0.10;;;;;;;;;;5005903;28;20250;-70
2021/10/19 08:22:24;;;;;;;0.10;0.10;;;;;;;;;;5006235;28;20213;-71
2021/10/19 08:24:51;;;;;;;0.20;0.20;;;;;;;;;;5005929;28;20205;-71
2021/10/19 08:27:17;;;;;;;0.10;0.10;;;;;;;;;;5005978;28;20210;-70
2021/10/19 08:29:44;;;;;;;0.10;0.10;;;;;;;;;;5005904;28;20238;-73
2021/10/19 08:32:11;;;;;;;0.23;0.23;;;;;;;;;;5006296;28;20392;-70
2021/10/19 08:34:37;;;;;;;0.10;0.10;;;;;;;;;;5005678;28;20239;-72
2021/10/19 08:37:03;;;;;;;0.10;0.10;;;;;;;;;;5006002;28;20216;-71
2021/10/19 08:39:29;;;;;;;0.10;0.10;;;;;;;;;;5005925;28;20208;-73
2021/10/19 08:41:56;;;;;;;0.10;0.10;;;;;;;;;;5006005;28;20436;-71
2021/10/19 08:44:23;;;;;;;0.10;0.10;;;;;;;;;;4995947;28;20207;-72
2021/10/19 08:46:51;;;;;;;0.10;0.10;;;;;;;;;;4993653;28;20269;-71
2021/10/19 08:49:17;;;;;;;0.10;0.10;;;;;;;;;;4997436;28;20221;-71
2021/10/19 08:51:43;;;;;;;0.10;0.10;;;;;;;;;;4998978;28;20219;-71
2021/10/19 08:54:10;;;;;;;0.33;0.33;;;;;;;;;;5004953;28;20599;-70
2021/10/19 08:56:37;;;;;;;0.10;0.10;;;;;;;;;;5006900;28;20241;-71
2021/10/19 08:59:03;;;;;;;0.10;0.10;;;;;;;;;;5003349;28;20213;-71
2021/10/19 09:01:34;;;;;;;0.10;0.10;;;;;;;;;;5002091;28;20401;-71
2021/10/19 09:04:05;;;;;;;0.10;0.10;;;;;;;;;;5004307;28;20268;-72
2021/10/19 09:06:32;;;;;;;0.10;0.10;;;;;;;;;;5008452;28;20203;-71
2021/10/19 09:09:03;;;;;;;0.10;0.10;;;;;;;;;;4997936;28;20212;-71
2021/10/19 09:11:36;;;;;;;0.10;0.10;;;;;;;;;;4991293;28;20219;-71
2021/10/19 09:14:03;;;;;;;0.10;0.10;;;;;;;;;;5005163;28;20585;-71
2021/10/19 09:16:36;;;;;;;0.10;0.10;;;;;;;;;;4997513;28;20210;-71
2021/10/19 09:19:03;;;;;;;0.10;0.10;;;;;;;;;;5004882;28;20209;-70
2021/10/19 09:21:30;;;;;;;0.10;0.10;;;;;;;;;;5005056;28;20211;-71
2021/10/19 09:24:11;;;;;;;0.10;0.10;;;;;;;;;;5005139;28;20239;-71
2021/10/19 09:26:38;;;;;;;0.10;0.10;;;;;;;;;;5004880;28;20251;-71
2021/10/19 09:29:10;;;;;;;0.47;0.47;;;;;;;;;;5004572;28;20371;-70
2021/10/19 09:31:37;;;;;;;0.10;0.10;;;;;;;;;;5004691;28;20305;-71
2021/10/19 09:34:06;;;;;;;0.10;0.10;;;;;;;;;;5004596;28;20564;-73
2021/10/19 09:36:33;;;;;;;0.10;0.10;;;;;;;;;;5004855;28;20216;-73
2021/10/19 09:38:59;;;;;;;0.10;0.10;;;;;;;;;;4999354;28;20252;-71
2021/10/19 09:41:26;;;;;;;0.10;0.10;;;;;;;;;;4985387;28;20219;-70
2021/10/19 09:43:52;;;;;;;0.10;0.10;;;;;;;;;;5002807;28;20218;-71
2021/10/19 09:46:23;;;;;;;0.10;0.10;;;;;;;;;;5004673;28;20209;-72
2021/10/19 09:48:50;;;;;;;0.10;0.10;;;;;;;;;;5004614;28;20243;-69
2021/10/19 09:51:20;;;;;;;0.00;0.00;;;;;;;;;;5004315;28;20208;-70
2021/10/19 09:53:46;;;;;;;0.20;0.20;;;;;;;;;;5002701;28;20223;-70
2021/10/19 09:56:12;;;;;;;0.10;0.10;;;;;;;;;;4984933;28;20283;-70
2021/10/19 09:58:40;;;;;;;0.10;0.10;;;;;;;;;;4988996;28;20212;-70
2021/10/19 10:01:10;;;;;;;0.00;0.00;;;;;;;;;;4999235;28;20208;-70
2021/10/19 10:03:36;;;;;;;0.10;0.10;;;;;;;;;;4997533;28;20394;-71
2021/10/19 10:06:03;;;;;;;0.10;0.10;;;;;;;;;;4989302;28;20220;-69
2021/10/19 10:08:31;;;;;;;0.10;0.10;;;;;;;;;;5004234;28;20212;-70
2021/10/19 10:10:58;;;;;;;0.10;0.10;;;;;;;;;;5004014;28;20545;-70
2021/10/19 10:13:24;;;;;;;0.47;0.47;;;;;;;;;;5004290;28;20258;-72
2021/10/19 10:15:51;;;;;;;0.00;0.00;;;;;;;;;;5004133;28;20209;-67
2021/10/19 10:18:17;;;;;;;0.10;0.10;;;;;;;;;;5003783;28;20214;-68
2021/10/19 10:20:44;;;;;;;0.10;0.10;;;;;;;;;;5004040;28;20219;-67
2021/10/19 10:23:15;;;;;;;0.10;0.10;;;;;;;;;;5003807;28;20274;-68
2021/10/19 10:25:43;;;;;;;0.10;0.10;;;;;;;;;;4995102;28;20263;-67
2021/10/19 10:28:11;;;;;;;0.80;0.80;;;;;;;;;;5003893;28;20260;-66
2021/10/19 10:30:37;;;;;;;0.00;0.00;;;;;;;;;;5003609;28;20557;-69
2021/10/19 10:33:05;;;;;;;0.10;0.10;;;;;;;;;;4996360;28;20391;-69
2021/10/19 10:35:31;;;;;;;0.10;0.10;;;;;;;;;;5003673;28;20233;-68
2021/10/19 10:37:58;;;;;;;0.10;0.10;;;;;;;;;;5003702;28;20205;-68
2021/10/19 10:40:29;;;;;;;0.10;0.10;;;;;;;;;;5003282;28;20228;-69
2021/10/19 10:42:58;;;;;;;0.10;0.10;;;;;;;;;;4998298;28;20429;-68
2021/10/19 10:45:29;;;;;;;0.63;0.43;;;;;;;;;;4992274;28;20208;-68
2021/10/19 10:47:56;;;;;;;0.10;0.10;;;;;;;;;;4990196;28;20228;-69
2021/10/19 10:50:23;;;;;;;0.10;0.10;;;;;;;;;;4996838;28;20280;-69
2021/10/19 10:52:56;;;;;;;0.10;0.10;;;;;;;;;;4998363;28;20210;-68
2021/10/19 10:55:22;;;;;;;0.30;0.30;;;;;;;;;;4990769;28;20223;-68
2021/10/19 10:57:48;;;;;;;0.00;0.00;;;;;;;;;;4994433;28;20211;-69
2021/10/19 11:00:22;;;;;;;0.07;0.07;;;;;;;;;;4997356;28;20209;-69
2021/10/19 11:02:49;;;;;;;0.10;0.10;;;;;;;;;;4992614;28;20445;-70
2021/10/19 11:05:15;;;;;;;0.00;0.00;;;;;;;;;;4992610;28;20383;-70
2021/10/19 11:07:43;;;;;;;0.00;0.00;;;;;;;;;;4992708;28;20263;-68
2021/10/19 11:10:10;;;;;;;0.03;0.03;;;;;;;;;;4989235;28;20317;-69
2021/10/19 11:12:36;;;;;;;0.10;0.10;;;;;;;;;;4992021;28;20211;-68
2021/10/19 11:15:10;;;;;;;0.10;0.10;;;;;;;;;;4998534;28;20259;-68
2021/10/19 11:17:44;;;;;;;0.10;0.10;;;;;;;;;;4996567;28;20227;-70
2021/10/19 11:20:11;;;;;;;0.10;0.10;;;;;;;;;;5004643;28;20225;-71
2021/10/19 11:22:37;;;;;;;0.00;0.00;;;;;;;;;;5004317;28;20229;-71
2021/10/19 11:25:04;;;;;;;0.08;0.08;;;;;;;;;;5003883;28;20208;-69
2021/10/19 11:27:31;;;;;;;0.05;0.05;;;;;;;;;;4995769;28;20204;-69
2021/10/19 11:29:58;;;;;;;0.00;0.00;;;;;;;;;;4997333;28;20929;-69
2021/10/19 11:32:24;;;;;;;0.00;0.00;;;;;;;;;;5012137;28;20277;-69
2021/10/19 11:34:55;;;;;;;0.00;0.00;;;;;;;;;;5007040;28;20235;-69
2021/10/19 11:37:21;;;;;;;0.00;0.00;;;;;;;;;;5012498;28;20216;-70
2021/10/19 11:39:47;;;;;;;0.00;0.00;;;;;;;;;;5011549;28;20261;-69
2021/10/19 11:42:14;;;;;;;0.10;0.10;;;;;;;;;;5026747;28;20268;-70
2021/10/19 11:44:40;;;;;;;0.10;0.10;;;;;;;;;;5012567;28;20459;-69
2021/10/19 11:47:06;;;;;;;0.00;0.00;;;;;;;;;;5009628;28;20207;-70
2021/10/19 11:49:33;;;;;;;0.00;0.00;;;;;;;;;;5002002;28;20494;-70
2021/10/19 11:52:01;;;;;;;0.10;0.10;;;;;;;;;;5001245;28;20254;-69
2021/10/19 11:54:30;;;;;;;0.10;0.10;;;;;;;;;;5025972;28;20375;-71
2021/10/19 11:56:57;;;;;;;0.00;0.00;;;;;;;;;;5017715;28;20216;-71
2021/10/19 11:59:23;;;;;;;0.00;0.00;;;;;;;;;;5006729;28;20507;-73
2021/10/19 12:01:52;;;;;;;0.10;0.10;;;;;;;;;;5005477;28;20257;-71
2021/10/19 12:04:18;;;;;;;0.00;0.00;;;;;;;;;;5006688;28;20199;-72
2021/10/19 12:06:45;;;;;;;0.10;0.10;;;;;;;;;;5006215;28;20245;-70
2021/10/19 12:09:17;;;;;;;0.00;0.00;;;;;;;;;;5005945;28;20253;-69
2021/10/19 12:11:47;;;;;;;0.10;0.10;;;;;;;;;;4994591;28;20422;-68
2021/10/19 12:14:13;;;;;;;0.10;0.10;;;;;;;;;;4994914;28;20584;-68
2021/10/19 12:16:40;;;;;;;0.00;0.00;;;;;;;;;;5006494;28;20258;-68
2021/10/19 12:19:06;;;;;;;0.32;0.32;;;;;;;;;;4992453;28;20205;-71
2021/10/19 12:21:33;;;;;;;0.10;0.10;;;;;;;;;;5001989;28;20206;-67
2021/10/19 12:24:00;;;;;;;0.10;0.10;;;;;;;;;;5006030;28;20222;-67
2021/10/19 12:26:29;;;;;;;0.00;0.00;;;;;;;;;;5006391;28;20206;-68
2021/10/19 12:28:57;;;;;;;0.00;0.00;;;;;;;;;;4997308;28;20247;-66
2021/10/19 12:31:25;;;;;;;0.00;0.00;;;;;;;;;;4994558;28;20244;-67
2021/10/19 12:33:55;;;;;;;0.00;0.00;;;;;;;;;;4997768;28;20214;-67
2021/10/19 12:36:27;;;;;;;0.00;0.00;;;;;;;;;;4994986;28;20560;-70
2021/10/19 12:38:54;;;;;;;0.10;0.10;;;;;;;;;;4991324;28;20203;-70
2021/10/19 12:41:21;;;;;;;0.10;0.10;;;;;;;;;;4987009;28;20253;-70
2021/10/19 12:43:49;;;;;;;0.05;0.05;;;;;;;;;;4992487;28;20598;-71
2021/10/19 12:46:16;;;;;;;0.00;0.00;;;;;;;;;;4999792;28;20211;-71
2021/10/19 12:48:43;;;;;;;0.10;0.10;;;;;;;;;;5000088;28;20211;-70
2021/10/19 12:51:10;;;;;;;0.10;0.10;;;;;;;;;;4992647;28;20208;-71
2021/10/19 12:53:37;;;;;;;0.10;0.10;;;;;;;;;;4994931;28;20211;-71
2021/10/19 12:56:03;;;;;;;0.10;0.10;;;;;;;;;;4991757;28;20336;-71
2021/10/19 12:58:32;;;;;;;0.10;0.10;;;;;;;;;;5004556;28;20260;-70
2021/10/19 13:01:00;;;;;;;0.10;0.10;;;;;;;;;;4997467;28;20554;-70
2021/10/19 13:03:26;;;;;;;0.10;0.10;;;;;;;;;;5005708;28;20640;-69
2021/10/19 13:05:53;;;;;;;0.10;0.10;;;;;;;;;;4992874;28;20292;-69
2021/10/19 13:08:19;;;;;;;0.10;0.10;;;;;;;;;;4995788;28;20211;-70
2021/10/19 13:10:45;;;;;;;0.10;0.10;;;;;;;;;;5004811;28;20210;-71
2021/10/19 13:13:12;;;;;;;0.00;0.00;;;;;;;;;;5003654;28;20261;-69
2021/10/19 13:15:38;;;;;;;0.10;0.10;;;;;;;;;;5004830;28;20271;-71
2021/10/19 13:18:05;;;;;;;0.10;0.10;;;;;;;;;;5005038;28;20230;-70
2021/10/19 13:20:32;;;;;;;0.00;0.00;;;;;;;;;;5005462;28;20458;-70
2021/10/19 13:22:58;;;;;;;0.20;0.20;;;;;;;;;;5004907;28;20248;-70
2021/10/19 13:25:24;;;;;;;0.10;0.10;;;;;;;;;;5004937;28;20263;-70
2021/10/19 13:27:52;;;;;;;0.07;0.07;;;;;;;;;;4993756;28;20236;-70
2021/10/19 13:30:18;;;;;;;0.10;0.10;;;;;;;;;;4985807;28;20241;-70
2021/10/19 13:32:45;;;;;;;0.00;0.00;;;;;;;;;;4986121;28;20249;-69
2021/10/19 13:35:13;;;;;;;0.00;0.00;;;;;;;;;;4998560;28;20227;-70
2021/10/19 13:37:39;;;;;;;0.03;0.03;;;;;;;;;;4986734;28;20208;-69
2021/10/19 13:40:06;;;;;;;0.10;0.10;;;;;;;;;;4999976;28;20205;-68
2021/10/19 13:42:32;;;;;;;0.10;0.10;;;;;;;;;;4986238;28;20222;-70
2021/10/19 13:44:59;;;;;;;0.10;0.10;;;;;;;;;;4997662;28;20206;-70
2021/10/19 13:47:25;;;;;;;0.10;0.10;;;;;;;;;;5004290;28;20526;-71
2021/10/19 13:49:51;;;;;;;0.10;0.10;;;;;;;;;;5004220;28;20400;-71
2021/10/19 13:52:19;;;;;;;0.10;0.10;;;;;;;;;;4990930;28;20436;-70
2021/10/19 13:54:45;;;;;;;0.83;0.83;;;;;;;;;;5004537;28;20283;-70
2021/10/19 13:57:12;;;;;;;0.07;0.07;;;;;;;;;;5018523;28;20206;-69
2021/10/19 13:59:39;;;;;;;0.10;0.10;;;;;;;;;;4997361;28;20282;-69
2021/10/19 14:02:05;;;;;;;0.00;0.00;;;;;;;;;;4998435;28;20505;-71
2021/10/19 14:04:32;;;;;;;0.10;0.10;;;;;;;;;;5004944;28;20503;-71
2021/10/19 14:06:59;;;;;;;0.03;0.03;;;;;;;;;;5004348;28;20243;-73
2021/10/19 14:09:27;;;;;;;0.00;0.00;;;;;;;;;;5000677;28;20213;-72
2021/10/19 14:11:55;;;;;;;0.10;0.10;;;;;;;;;;4984601;28;20210;-71
2021/10/19 14:14:21;;;;;;;0.10;0.10;;;;;;;;;;4996864;28;20206;-72
2021/10/19 14:16:48;;;;;;;0.00;0.00;;;;;;;;;;4989859;28;20294;-73
2021/10/19 14:19:14;;;;;;;0.10;0.10;;;;;;;;;;4996254;28;20211;-71
2021/10/19 14:21:40;;;;;;;0.00;0.00;;;;;;;;;;5003856;28;20442;-71
2021/10/19 14:24:07;;;;;;;0.30;0.30;;;;;;;;;;5004128;28;20209;-72
2021/10/19 14:26:35;;;;;;;0.10;0.10;;;;;;;;;;5004156;28;20238;-72
2021/10/19 14:29:01;;;;;;;0.00;0.00;;;;;;;;;;5004038;28;20279;-72
2021/10/19 14:31:28;;;;;;;0.00;0.00;;;;;;;;;;5003699;28;20236;-72
2021/10/19 14:33:54;;;;;;;0.00;0.00;;;;;;;;;;5003797;28;20232;-74
2021/10/19 14:36:20;;;;;;;0.10;0.10;;;;;;;;;;5003716;28;20318;-71
2021/10/19 14:38:46;;;;;;;0.10;0.10;;;;;;;;;;5003812;28;20226;-71
2021/10/19 14:41:13;;;;;;;0.00;0.00;;;;;;;;;;5003995;28;20212;-70